Terminal Aerodrome Forecast
Issued by NWS Charleston, WV

Current Version | Previous Version | Graphics & Text | Print | Product List | Glossary On
Versions: 1 2 3 4 5 6 7 8 9 10 11 12 13 14 15 16 17 18 19 20 21
000
FTUS41 KRLX 251547 AAA
TAFCRW
TAF AMD
KCRW 251547Z 2516/2612 20006KT P6SM SCT250
     FM252300 VRB03KT P6SM SCT060
     FM260300 VRB03KT P6SM BKN050=

USA.gov is the U.S. government's official web portal to all federal, state and local government web resources and services.